createdAt,value
2017-04-06T17:23:20.872Z,11.52
2017-04-06T17:24:18.478Z,10.56
2017-04-06T17:25:16.816Z,13.02
2017-04-06T17:26:14.384Z,10.14
2017-04-06T17:27:12.756Z,12.42
2017-04-06T17:28:10.460Z,13.02
2017-04-06T17:29:08.092Z,14.40
2017-04-06T17:30:05.704Z,10.00
2017-04-06T17:31:03.292Z,7.92
2017-04-06T17:32:00.949Z,11.92
2017-04-06T17:32:59.156Z,10.46
2017-04-06T17:33:57.327Z,10.10
2017-04-06T17:34:54.972Z,10.74
2017-04-06T17:35:52.612Z,8.36
2017-04-06T17:36:50.229Z,11.26
2017-04-06T17:37:47.908Z,8.96
2017-04-06T17:38:45.543Z,8.32
2017-04-06T17:39:43.128Z,8.54
2017-04-06T17:40:40.715Z,9.54
2017-04-06T17:41:38.285Z,8.36
2017-04-06T17:42:36.239Z,11.46
2017-04-06T17:43:33.894Z,17.80
2017-04-06T17:44:34.016Z,24.40
2017-04-06T17:45:31.665Z,23.68
2017-04-06T17:46:29.239Z,16.18
2017-04-06T17:47:26.826Z,18.68
2017-04-06T17:48:24.475Z,13.80
2017-04-06T17:49:22.846Z,11.88
2017-04-06T17:50:20.457Z,11.82
2017-04-06T17:51:18.086Z,14.78
2017-04-06T17:52:15.652Z,12.38
2017-04-06T17:53:13.212Z,10.66
2017-04-06T17:54:13.837Z,10.94
2017-04-06T17:55:11.504Z,13.86
2017-04-06T17:56:09.853Z,11.24
2017-04-06T17:57:07.441Z,8.42
2017-04-06T17:58:05.121Z,14.02
2017-04-06T17:59:02.741Z,14.46
2017-04-06T18:00:00.308Z,11.06
2017-04-06T18:00:58.040Z,11.16
2017-04-06T18:01:55.726Z,9.48
2017-04-06T18:02:53.287Z,10.78
2017-04-06T18:03:50.856Z,7.14
2017-04-06T18:04:48.476Z,13.72
2017-04-06T18:05:46.039Z,5.76
2017-04-06T18:06:43.599Z,12.84
2017-04-06T18:07:41.212Z,8.98
2017-04-06T18:08:39.862Z,7.58
2017-04-06T18:09:38.068Z,8.94
2017-04-06T18:10:35.644Z,12.30
2017-04-06T18:11:33.217Z,10.96
2017-04-06T18:12:31.581Z,11.42
2017-04-06T18:13:29.261Z,9.12
2017-04-06T18:14:27.049Z,7.80
2017-04-06T18:15:26.126Z,9.38
2017-04-06T18:16:23.715Z,8.78
2017-04-06T18:17:21.372Z,6.58
2017-04-06T18:18:19.292Z,7.40
2017-04-06T18:19:16.937Z,12.54
2017-04-06T18:20:14.563Z,9.30
2017-04-06T18:21:12.601Z,11.74
2017-04-06T18:22:10.184Z,8.76
2017-04-06T18:23:07.741Z,8.06
2017-04-06T18:24:05.949Z,10.56
2017-04-06T18:25:03.522Z,5.46
2017-04-06T18:26:01.137Z,10.70
2017-04-06T18:27:06.780Z,8.10
2017-04-06T18:28:04.402Z,16.10
2017-04-06T18:29:01.965Z,9.38
2017-04-06T18:29:59.719Z,7.36
2017-04-06T18:30:57.736Z,10.38
2017-04-06T18:31:55.340Z,10.94
2017-04-06T18:32:53.699Z,8.32
2017-04-06T18:33:51.356Z,14.86
2017-04-06T18:34:48.960Z,10.30
2017-04-06T18:35:46.540Z,8.00
2017-04-06T18:36:44.828Z,11.42
2017-04-06T18:37:43.241Z,9.00
2017-04-06T18:38:41.676Z,10.34
2017-04-06T18:39:39.293Z,6.12
2017-04-06T18:40:36.941Z,13.18
2017-04-06T18:41:34.508Z,8.46
2017-04-06T18:42:33.284Z,13.18
2017-04-06T18:43:30.853Z,5.86
2017-04-06T18:44:28.464Z,13.04
2017-04-06T18:45:26.124Z,7.80
2017-04-06T18:46:23.683Z,9.38
2017-04-06T18:47:21.462Z,7.84
2017-04-06T18:48:19.063Z,11.48
2017-04-06T18:49:16.619Z,9.38
2017-04-06T18:50:14.396Z,6.58
2017-04-06T18:51:13.182Z,17.66
2017-04-06T18:52:10.844Z,5.64
2017-04-06T18:53:08.755Z,9.58
2017-04-06T18:54:06.416Z,7.34
2017-04-06T18:55:04.016Z,5.78
2017-04-06T18:56:01.737Z,8.68
2017-04-06T18:56:59.682Z,8.20
2017-04-06T18:58:00.451Z,10.20
2017-04-06T18:58:58.069Z,9.54
2017-04-06T18:59:55.643Z,7.82
2017-04-06T19:00:53.345Z,9.96
2017-04-06T19:01:51.051Z,14.54
2017-04-06T19:02:48.628Z,18.20
2017-04-06T19:03:46.214Z,11.76
2017-04-06T19:04:43.792Z,7.54
2017-04-06T19:05:41.372Z,13.04
2017-04-06T19:06:38.981Z,7.94
2017-04-06T19:07:36.600Z,10.12
2017-04-06T19:08:34.167Z,17.06
2017-04-06T19:09:31.906Z,99.38
2017-04-06T19:10:30.902Z,65.18
2017-04-06T19:11:29.199Z,56.38
2017-04-06T19:12:28.104Z,54.94
2017-04-06T19:13:26.752Z,63.26
2017-04-06T19:14:24.329Z,68.34
2017-04-06T19:15:22.060Z,64.36
2017-04-06T19:16:19.666Z,54.02
2017-04-06T19:17:17.636Z,56.00
2017-04-06T19:18:15.225Z,59.16
2017-04-06T19:19:15.284Z,50.98
2017-04-06T19:20:12.980Z,51.32
2017-04-06T19:21:10.737Z,44.50
2017-04-06T19:22:08.477Z,53.02
2017-04-06T19:23:06.098Z,55.06
2017-04-06T19:24:03.684Z,44.22
2017-04-06T19:25:01.882Z,36.66
2017-04-06T19:26:00.364Z,43.24
2017-04-06T19:26:58.184Z,42.38
2017-04-06T19:27:56.778Z,38.74
2017-04-06T19:28:55.129Z,37.32
2017-04-06T19:29:52.729Z,30.98
2017-04-06T19:30:50.340Z,34.00
2017-04-06T19:31:49.158Z,32.40
2017-04-06T19:32:46.885Z,32.84
2017-04-06T19:33:45.376Z,28.02
2017-04-06T19:34:43.903Z,26.00
2017-04-06T19:35:41.852Z,27.00
2017-04-06T19:36:39.736Z,29.88
2017-04-06T19:37:38.137Z,25.92
2017-04-06T19:38:35.752Z,28.92
2017-04-06T19:39:34.167Z,24.94
2017-04-06T19:40:32.179Z,21.58
2017-04-06T19:41:30.630Z,21.38
2017-04-06T19:42:28.892Z,20.80
2017-04-06T19:43:26.624Z,29.22
2017-04-06T19:44:24.212Z,25.20
2017-04-06T19:45:22.481Z,24.20
2017-04-06T19:46:20.148Z,23.98
2017-04-06T19:47:17.731Z,23.36
2017-04-06T19:48:15.364Z,28.70
2017-04-06T19:49:12.963Z,24.18
2017-04-06T19:50:10.580Z,25.26
2017-04-06T19:51:08.328Z,19.02
2017-04-06T19:52:05.969Z,27.00
2017-04-06T19:53:03.712Z,20.20
2017-04-06T19:54:01.506Z,19.08
2017-04-06T19:54:59.162Z,20.18
2017-04-06T19:55:56.774Z,22.88
2017-04-06T19:56:54.479Z,20.70
2017-04-06T19:57:52.202Z,21.34
2017-04-06T19:58:49.793Z,18.64
2017-04-06T19:59:47.425Z,18.36
2017-04-06T20:00:45.021Z,17.18
2017-04-06T20:01:44.187Z,19.82
2017-04-06T20:02:41.783Z,18.16
2017-04-06T20:03:39.652Z,20.02
2017-04-06T20:04:37.338Z,20.90
2017-04-06T20:05:35.137Z,17.50
2017-04-06T20:06:32.817Z,17.36
2017-04-06T20:07:30.390Z,16.66
2017-04-06T20:08:28.728Z,14.80
2017-04-06T20:09:26.335Z,15.14
2017-04-06T20:10:23.908Z,14.98
2017-04-06T20:11:22.252Z,17.96
2017-04-06T20:12:19.879Z,17.38
